sensor_id;sensor_type;location;lat;lon;timestamp;P1;durP1;ratioP1;P2;durP2;ratioP2
41309;SDS011;27057;51.438;-0.010;2023-07-13T00:02:00;14.88;;;2.47;;
41309;SDS011;27057;51.438;-0.010;2023-07-13T00:04:28;11.10;;;3.13;;
41309;SDS011;27057;51.438;-0.010;2023-07-13T00:06:59;15.48;;;2.60;;
41309;SDS011;27057;51.438;-0.010;2023-07-13T00:09:27;9.27;;;2.30;;
41309;SDS011;27057;51.438;-0.010;2023-07-13T00:11:56;8.70;;;2.40;;
41309;SDS011;27057;51.438;-0.010;2023-07-13T00:14:25;9.45;;;2.78;;
41309;SDS011;27057;51.438;-0.010;2023-07-13T00:16:53;11.85;;;2.47;;
41309;SDS011;27057;51.438;-0.010;2023-07-13T00:19:22;12.95;;;3.13;;
41309;SDS011;27057;51.438;-0.010;2023-07-13T00:21:50;5.70;;;2.30;;
41309;SDS011;27057;51.438;-0.010;2023-07-13T00:24:18;7.97;;;2.28;;
41309;SDS011;27057;51.438;-0.010;2023-07-13T00:26:50;9.07;;;2.67;;
41309;SDS011;27057;51.438;-0.010;2023-07-13T00:29:18;15.23;;;2.83;;
41309;SDS011;27057;51.438;-0.010;2023-07-13T00:31:48;13.75;;;2.90;;
41309;SDS011;27057;51.438;-0.010;2023-07-13T00:34:16;11.88;;;2.42;;
41309;SDS011;27057;51.438;-0.010;2023-07-13T00:36:43;22.20;;;5.05;;
41309;SDS011;27057;51.438;-0.010;2023-07-13T00:39:10;5.13;;;2.42;;
41309;SDS011;27057;51.438;-0.010;2023-07-13T00:41:39;10.75;;;3.05;;
41309;SDS011;27057;51.438;-0.010;2023-07-13T00:44:09;16.00;;;3.42;;
41309;SDS011;27057;51.438;-0.010;2023-07-13T00:46:46;11.38;;;3.40;;
41309;SDS011;27057;51.438;-0.010;2023-07-13T00:49:15;16.92;;;2.28;;
41309;SDS011;27057;51.438;-0.010;2023-07-13T00:54:21;8.68;;;2.95;;
41309;SDS011;27057;51.438;-0.010;2023-07-13T00:56:53;7.43;;;2.87;;
41309;SDS011;27057;51.438;-0.010;2023-07-13T00:59:24;16.95;;;3.42;;
41309;SDS011;27057;51.438;-0.010;2023-07-13T01:01:52;13.15;;;2.95;;
41309;SDS011;27057;51.438;-0.010;2023-07-13T01:04:23;17.85;;;3.13;;
41309;SDS011;27057;51.438;-0.010;2023-07-13T01:06:54;13.57;;;3.67;;
41309;SDS011;27057;51.438;-0.010;2023-07-13T01:09:22;17.02;;;2.65;;
41309;SDS011;27057;51.438;-0.010;2023-07-13T01:11:50;15.15;;;2.60;;
41309;SDS011;27057;51.438;-0.010;2023-07-13T01:14:17;21.88;;;3.65;;
41309;SDS011;27057;51.438;-0.010;2023-07-13T01:16:46;14.20;;;3.22;;
41309;SDS011;27057;51.438;-0.010;2023-07-13T01:19:57;18.67;;;3.83;;
41309;SDS011;27057;51.438;-0.010;2023-07-13T01:22:13;12.10;;;3.25;;
41309;SDS011;27057;51.438;-0.010;2023-07-13T01:24:43;16.33;;;2.95;;
41309;SDS011;27057;51.438;-0.010;2023-07-13T01:27:16;13.27;;;3.08;;
41309;SDS011;27057;51.438;-0.010;2023-07-13T01:29:47;11.43;;;2.95;;
41309;SDS011;27057;51.438;-0.010;2023-07-13T01:32:17;15.45;;;3.25;;
41309;SDS011;27057;51.438;-0.010;2023-07-13T01:34:54;18.05;;;3.55;;
41309;SDS011;27057;51.438;-0.010;2023-07-13T01:37:22;11.15;;;3.47;;
41309;SDS011;27057;51.438;-0.010;2023-07-13T01:39:51;14.35;;;3.28;;
41309;SDS011;27057;51.438;-0.010;2023-07-13T01:42:19;14.32;;;2.90;;
41309;SDS011;27057;51.438;-0.010;2023-07-13T01:44:47;14.65;;;3.35;;
41309;SDS011;27057;51.438;-0.010;2023-07-13T01:47:15;12.07;;;4.10;;
41309;SDS011;27057;51.438;-0.010;2023-07-13T01:49:42;11.68;;;3.28;;
41309;SDS011;27057;51.438;-0.010;2023-07-13T01:52:13;8.68;;;3.22;;
41309;SDS011;27057;51.438;-0.010;2023-07-13T01:54:40;14.45;;;3.17;;
41309;SDS011;27057;51.438;-0.010;2023-07-13T01:57:08;10.23;;;3.58;;
41309;SDS011;27057;51.438;-0.010;2023-07-13T01:59:36;20.17;;;3.53;;
41309;SDS011;27057;51.438;-0.010;2023-07-13T02:02:06;17.13;;;3.70;;
41309;SDS011;27057;51.438;-0.010;2023-07-13T02:04:34;13.05;;;3.60;;
41309;SDS011;27057;51.438;-0.010;2023-07-13T02:07:01;12.20;;;3.60;;
41309;SDS011;27057;51.438;-0.010;2023-07-13T02:09:28;9.30;;;3.13;;
41309;SDS011;27057;51.438;-0.010;2023-07-13T02:11:56;17.92;;;3.10;;
41309;SDS011;27057;51.438;-0.010;2023-07-13T02:14:29;13.15;;;3.78;;
41309;SDS011;27057;51.438;-0.010;2023-07-13T02:16:57;18.15;;;3.72;;
41309;SDS011;27057;51.438;-0.010;2023-07-13T02:19:24;11.77;;;2.53;;
41309;SDS011;27057;51.438;-0.010;2023-07-13T02:21:51;15.18;;;3.22;;
41309;SDS011;27057;51.438;-0.010;2023-07-13T02:24:19;11.48;;;3.00;;
41309;SDS011;27057;51.438;-0.010;2023-07-13T02:26:47;8.10;;;2.67;;
41309;SDS011;27057;51.438;-0.010;2023-07-13T02:29:15;6.90;;;3.10;;
41309;SDS011;27057;51.438;-0.010;2023-07-13T02:31:44;14.82;;;4.57;;
41309;SDS011;27057;51.438;-0.010;2023-07-13T02:34:12;16.92;;;3.22;;
41309;SDS011;27057;51.438;-0.010;2023-07-13T02:36:40;10.02;;;3.08;;
41309;SDS011;27057;51.438;-0.010;2023-07-13T02:39:07;25.38;;;4.72;;
41309;SDS011;27057;51.438;-0.010;2023-07-13T02:41:38;10.00;;;2.80;;
41309;SDS011;27057;51.438;-0.010;2023-07-13T02:44:05;9.35;;;2.47;;
41309;SDS011;27057;51.438;-0.010;2023-07-13T02:46:36;7.80;;;2.60;;
41309;SDS011;27057;51.438;-0.010;2023-07-13T02:49:04;13.43;;;3.10;;
41309;SDS011;27057;51.438;-0.010;2023-07-13T02:51:32;15.73;;;3.08;;
41309;SDS011;27057;51.438;-0.010;2023-07-13T02:54:01;11.23;;;3.33;;
41309;SDS011;27057;51.438;-0.010;2023-07-13T02:56:31;12.50;;;3.20;;
41309;SDS011;27057;51.438;-0.010;2023-07-13T02:58:59;13.15;;;3.58;;
41309;SDS011;27057;51.438;-0.010;2023-07-13T03:01:26;11.80;;;3.30;;
41309;SDS011;27057;51.438;-0.010;2023-07-13T03:03:53;13.25;;;3.67;;
41309;SDS011;27057;51.438;-0.010;2023-07-13T03:06:21;8.95;;;2.72;;
41309;SDS011;27057;51.438;-0.010;2023-07-13T03:08:52;10.27;;;2.92;;
41309;SDS011;27057;51.438;-0.010;2023-07-13T03:11:20;13.30;;;3.67;;
41309;SDS011;27057;51.438;-0.010;2023-07-13T03:13:54;13.60;;;3.25;;
41309;SDS011;27057;51.438;-0.010;2023-07-13T03:16:23;11.80;;;4.40;;
41309;SDS011;27057;51.438;-0.010;2023-07-13T03:18:52;10.52;;;2.65;;
41309;SDS011;27057;51.438;-0.010;2023-07-13T03:21:19;12.20;;;2.47;;
41309;SDS011;27057;51.438;-0.010;2023-07-13T03:23:47;9.93;;;3.25;;
41309;SDS011;27057;51.438;-0.010;2023-07-13T03:26:16;10.05;;;2.83;;
41309;SDS011;27057;51.438;-0.010;2023-07-13T03:28:45;13.77;;;2.90;;
41309;SDS011;27057;51.438;-0.010;2023-07-13T03:31:18;12.65;;;2.35;;
41309;SDS011;27057;51.438;-0.010;2023-07-13T03:33:48;14.93;;;3.10;;
41309;SDS011;27057;51.438;-0.010;2023-07-13T03:36:22;14.00;;;3.00;;
41309;SDS011;27057;51.438;-0.010;2023-07-13T03:38:56;19.45;;;3.08;;
41309;SDS011;27057;51.438;-0.010;2023-07-13T03:41:32;9.35;;;2.40;;
41309;SDS011;27057;51.438;-0.010;2023-07-13T03:44:00;8.93;;;3.13;;
41309;SDS011;27057;51.438;-0.010;2023-07-13T03:46:27;6.35;;;2.65;;
41309;SDS011;27057;51.438;-0.010;2023-07-13T03:48:56;13.02;;;2.92;;
41309;SDS011;27057;51.438;-0.010;2023-07-13T03:51:24;16.10;;;3.13;;
41309;SDS011;27057;51.438;-0.010;2023-07-13T03:53:52;13.60;;;3.17;;
41309;SDS011;27057;51.438;-0.010;2023-07-13T03:56:20;12.55;;;2.40;;
41309;SDS011;27057;51.438;-0.010;2023-07-13T03:58:48;8.05;;;2.30;;
41309;SDS011;27057;51.438;-0.010;2023-07-13T04:01:19;8.23;;;2.42;;
41309;SDS011;27057;51.438;-0.010;2023-07-13T04:03:48;13.77;;;2.92;;
41309;SDS011;27057;51.438;-0.010;2023-07-13T04:06:20;10.80;;;2.88;;
41309;SDS011;27057;51.438;-0.010;2023-07-13T04:08:51;14.77;;;3.03;;
41309;SDS011;27057;51.438;-0.010;2023-07-13T04:11:21;4.75;;;2.05;;
41309;SDS011;27057;51.438;-0.010;2023-07-13T04:13:50;11.07;;;2.60;;
41309;SDS011;27057;51.438;-0.010;2023-07-13T04:16:18;6.20;;;2.47;;
41309;SDS011;27057;51.438;-0.010;2023-07-13T04:18:47;8.70;;;2.20;;
41309;SDS011;27057;51.438;-0.010;2023-07-13T04:21:15;5.78;;;2.65;;
41309;SDS011;27057;51.438;-0.010;2023-07-13T04:23:43;9.95;;;2.33;;
41309;SDS011;27057;51.438;-0.010;2023-07-13T04:26:10;9.52;;;2.50;;
41309;SDS011;27057;51.438;-0.010;2023-07-13T04:28:38;7.97;;;2.58;;
41309;SDS011;27057;51.438;-0.010;2023-07-13T04:31:06;13.43;;;2.88;;
41309;SDS011;27057;51.438;-0.010;2023-07-13T04:33:33;18.25;;;3.53;;
41309;SDS011;27057;51.438;-0.010;2023-07-13T04:36:00;12.85;;;2.95;;
41309;SDS011;27057;51.438;-0.010;2023-07-13T04:38:29;10.65;;;3.13;;
41309;SDS011;27057;51.438;-0.010;2023-07-13T04:41:02;6.53;;;2.20;;
41309;SDS011;27057;51.438;-0.010;2023-07-13T04:43:31;17.13;;;3.85;;
41309;SDS011;27057;51.438;-0.010;2023-07-13T04:46:03;8.82;;;2.42;;
41309;SDS011;27057;51.438;-0.010;2023-07-13T04:48:32;5.90;;;2.67;;
41309;SDS011;27057;51.438;-0.010;2023-07-13T04:51:01;10.35;;;2.40;;
41309;SDS011;27057;51.438;-0.010;2023-07-13T04:53:28;16.55;;;2.60;;
41309;SDS011;27057;51.438;-0.010;2023-07-13T04:55:56;9.32;;;2.53;;
41309;SDS011;27057;51.438;-0.010;2023-07-13T04:58:24;10.10;;;2.78;;
41309;SDS011;27057;51.438;-0.010;2023-07-13T05:00:53;17.10;;;3.33;;
41309;SDS011;27057;51.438;-0.010;2023-07-13T05:03:25;18.50;;;3.00;;
41309;SDS011;27057;51.438;-0.010;2023-07-13T05:06:00;10.63;;;2.97;;
41309;SDS011;27057;51.438;-0.010;2023-07-13T05:08:30;11.32;;;2.72;;
41309;SDS011;27057;51.438;-0.010;2023-07-13T05:10:59;7.13;;;2.63;;
41309;SDS011;27057;51.438;-0.010;2023-07-13T05:13:27;9.35;;;2.55;;
41309;SDS011;27057;51.438;-0.010;2023-07-13T05:15:57;7.45;;;2.03;;
41309;SDS011;27057;51.438;-0.010;2023-07-13T05:18:26;9.10;;;2.45;;
41309;SDS011;27057;51.438;-0.010;2023-07-13T05:21:12;9.30;;;3.70;;
41309;SDS011;27057;51.438;-0.010;2023-07-13T05:23:40;11.18;;;2.80;;
41309;SDS011;27057;51.438;-0.010;2023-07-13T05:26:11;13.02;;;2.80;;
41309;SDS011;27057;51.438;-0.010;2023-07-13T05:28:38;10.68;;;2.50;;
41309;SDS011;27057;51.438;-0.010;2023-07-13T05:31:07;14.25;;;2.75;;
41309;SDS011;27057;51.438;-0.010;2023-07-13T05:33:36;10.75;;;2.78;;
41309;SDS011;27057;51.438;-0.010;2023-07-13T05:36:04;13.02;;;2.85;;
41309;SDS011;27057;51.438;-0.010;2023-07-13T05:38:31;13.43;;;3.40;;
41309;SDS011;27057;51.438;-0.010;2023-07-13T05:40:59;9.90;;;2.75;;
41309;SDS011;27057;51.438;-0.010;2023-07-13T05:43:31;11.20;;;2.88;;
41309;SDS011;27057;51.438;-0.010;2023-07-13T05:45:59;10.77;;;2.33;;
41309;SDS011;27057;51.438;-0.010;2023-07-13T05:48:26;11.82;;;2.53;;
41309;SDS011;27057;51.438;-0.010;2023-07-13T05:50:54;7.35;;;2.67;;
41309;SDS011;27057;51.438;-0.010;2023-07-13T05:53:21;7.53;;;2.28;;
41309;SDS011;27057;51.438;-0.010;2023-07-13T05:55:48;13.35;;;2.55;;
41309;SDS011;27057;51.438;-0.010;2023-07-13T05:58:20;8.80;;;2.58;;
41309;SDS011;27057;51.438;-0.010;2023-07-13T06:00:47;9.63;;;2.10;;
41309;SDS011;27057;51.438;-0.010;2023-07-13T06:03:15;9.60;;;2.85;;
41309;SDS011;27057;51.438;-0.010;2023-07-13T06:05:43;11.05;;;2.45;;
41309;SDS011;27057;51.438;-0.010;2023-07-13T06:08:10;7.82;;;2.45;;
41309;SDS011;27057;51.438;-0.010;2023-07-13T06:10:38;10.43;;;1.90;;
41309;SDS011;27057;51.438;-0.010;2023-07-13T06:13:05;13.43;;;2.75;;
41309;SDS011;27057;51.438;-0.010;2023-07-13T06:15:32;9.82;;;2.30;;
41309;SDS011;27057;51.438;-0.010;2023-07-13T06:18:00;16.33;;;2.35;;
41309;SDS011;27057;51.438;-0.010;2023-07-13T06:20:27;5.65;;;2.05;;
41309;SDS011;27057;51.438;-0.010;2023-07-13T06:22:56;10.30;;;2.80;;
41309;SDS011;27057;51.438;-0.010;2023-07-13T06:25:23;8.70;;;2.72;;
41309;SDS011;27057;51.438;-0.010;2023-07-13T06:27:51;8.60;;;1.98;;
41309;SDS011;27057;51.438;-0.010;2023-07-13T06:30:18;8.50;;;2.78;;
41309;SDS011;27057;51.438;-0.010;2023-07-13T06:32:46;11.27;;;2.40;;
41309;SDS011;27057;51.438;-0.010;2023-07-13T06:35:13;13.63;;;3.42;;
41309;SDS011;27057;51.438;-0.010;2023-07-13T06:37:41;9.15;;;2.38;;
41309;SDS011;27057;51.438;-0.010;2023-07-13T06:40:08;10.25;;;3.22;;
41309;SDS011;27057;51.438;-0.010;2023-07-13T06:42:36;13.55;;;2.33;;
41309;SDS011;27057;51.438;-0.010;2023-07-13T06:45:05;11.55;;;2.88;;
41309;SDS011;27057;51.438;-0.010;2023-07-13T06:47:33;10.10;;;2.00;;
41309;SDS011;27057;51.438;-0.010;2023-07-13T06:50:00;11.95;;;2.05;;
41309;SDS011;27057;51.438;-0.010;2023-07-13T06:52:28;9.63;;;2.55;;
41309;SDS011;27057;51.438;-0.010;2023-07-13T06:54:55;12.25;;;1.95;;
41309;SDS011;27057;51.438;-0.010;2023-07-13T06:57:23;11.73;;;3.15;;
41309;SDS011;27057;51.438;-0.010;2023-07-13T06:59:50;7.78;;;2.17;;
41309;SDS011;27057;51.438;-0.010;2023-07-13T07:02:17;11.73;;;2.33;;
41309;SDS011;27057;51.438;-0.010;2023-07-13T07:04:45;9.05;;;1.73;;
41309;SDS011;27057;51.438;-0.010;2023-07-13T07:07:12;10.20;;;1.92;;
41309;SDS011;27057;51.438;-0.010;2023-07-13T07:09:39;12.93;;;2.80;;
41309;SDS011;27057;51.438;-0.010;2023-07-13T07:12:07;10.38;;;2.00;;
41309;SDS011;27057;51.438;-0.010;2023-07-13T07:14:34;11.25;;;2.00;;
41309;SDS011;27057;51.438;-0.010;2023-07-13T07:17:02;9.82;;;1.77;;
41309;SDS011;27057;51.438;-0.010;2023-07-13T07:19:30;7.28;;;2.05;;
41309;SDS011;27057;51.438;-0.010;2023-07-13T07:21:57;16.33;;;2.40;;
41309;SDS011;27057;51.438;-0.010;2023-07-13T07:24:25;10.50;;;2.40;;
41309;SDS011;27057;51.438;-0.010;2023-07-13T07:26:52;4.05;;;1.90;;
41309;SDS011;27057;51.438;-0.010;2023-07-13T07:29:22;7.30;;;2.20;;
41309;SDS011;27057;51.438;-0.010;2023-07-13T07:31:55;11.35;;;2.17;;
41309;SDS011;27057;51.438;-0.010;2023-07-13T07:34:26;13.50;;;2.78;;
41309;SDS011;27057;51.438;-0.010;2023-07-13T07:36:53;10.90;;;2.15;;
41309;SDS011;27057;51.438;-0.010;2023-07-13T07:39:24;6.22;;;1.80;;
41309;SDS011;27057;51.438;-0.010;2023-07-13T07:41:51;10.13;;;2.10;;
41309;SDS011;27057;51.438;-0.010;2023-07-13T07:44:21;6.03;;;1.73;;
41309;SDS011;27057;51.438;-0.010;2023-07-13T07:46:49;10.88;;;2.33;;
41309;SDS011;27057;51.438;-0.010;2023-07-13T07:49:17;10.57;;;1.70;;
41309;SDS011;27057;51.438;-0.010;2023-07-13T07:51:44;9.65;;;2.28;;
41309;SDS011;27057;51.438;-0.010;2023-07-13T07:54:11;12.48;;;2.88;;
41309;SDS011;27057;51.438;-0.010;2023-07-13T07:56:47;9.13;;;1.90;;
41309;SDS011;27057;51.438;-0.010;2023-07-13T07:59:36;18.17;;;4.10;;
41309;SDS011;27057;51.438;-0.010;2023-07-13T08:02:08;8.35;;;2.58;;
41309;SDS011;27057;51.438;-0.010;2023-07-13T08:04:57;6.10;;;2.47;;
41309;SDS011;27057;51.438;-0.010;2023-07-13T08:07:27;7.95;;;2.28;;
41309;SDS011;27057;51.438;-0.010;2023-07-13T08:09:56;12.55;;;6.18;;
41309;SDS011;27057;51.438;-0.010;2023-07-13T08:12:24;15.00;;;2.35;;
41309;SDS011;27057;51.438;-0.010;2023-07-13T08:14:54;15.10;;;1.60;;
41309;SDS011;27057;51.438;-0.010;2023-07-13T08:17:24;13.80;;;2.58;;
41309;SDS011;27057;51.438;-0.010;2023-07-13T08:19:52;6.63;;;2.47;;
41309;SDS011;27057;51.438;-0.010;2023-07-13T08:22:20;5.13;;;1.83;;
41309;SDS011;27057;51.438;-0.010;2023-07-13T08:24:48;7.82;;;1.10;;
41309;SDS011;27057;51.438;-0.010;2023-07-13T08:27:25;16.05;;;1.52;;
41309;SDS011;27057;51.438;-0.010;2023-07-13T08:29:54;15.85;;;2.05;;
41309;SDS011;27057;51.438;-0.010;2023-07-13T08:32:22;13.88;;;3.95;;
41309;SDS011;27057;51.438;-0.010;2023-07-13T08:34:50;9.07;;;1.58;;
41309;SDS011;27057;51.438;-0.010;2023-07-13T08:37:18;6.25;;;1.63;;
41309;SDS011;27057;51.438;-0.010;2023-07-13T08:39:46;9.50;;;1.52;;
41309;SDS011;27057;51.438;-0.010;2023-07-13T08:47:29;10.10;;;1.35;;
41309;SDS011;27057;51.438;-0.010;2023-07-13T08:49:59;6.97;;;1.95;;
41309;SDS011;27057;51.438;-0.010;2023-07-13T08:55:05;4.00;;;1.52;;
41309;SDS011;27057;51.438;-0.010;2023-07-13T08:57:41;8.68;;;2.90;;
41309;SDS011;27057;51.438;-0.010;2023-07-13T09:00:10;2.78;;;1.23;;
41309;SDS011;27057;51.438;-0.010;2023-07-13T09:02:44;6.63;;;1.63;;
41309;SDS011;27057;51.438;-0.010;2023-07-13T09:10:23;4.25;;;1.70;;
41309;SDS011;27057;51.438;-0.010;2023-07-13T09:12:58;3.10;;;1.58;;
41309;SDS011;27057;51.438;-0.010;2023-07-13T09:15:40;14.07;;;1.77;;
41309;SDS011;27057;51.438;-0.010;2023-07-13T09:18:13;12.68;;;1.38;;
41309;SDS011;27057;51.438;-0.010;2023-07-13T09:21:03;5.53;;;1.70;;
41309;SDS011;27057;51.438;-0.010;2023-07-13T09:23:37;4.95;;;1.63;;
41309;SDS011;27057;51.438;-0.010;2023-07-13T09:26:13;4.05;;;1.73;;
41309;SDS011;27057;51.438;-0.010;2023-07-13T09:28:46;9.00;;;1.98;;
41309;SDS011;27057;51.438;-0.010;2023-07-13T09:31:32;8.20;;;2.17;;
41309;SDS011;27057;51.438;-0.010;2023-07-13T09:34:04;11.38;;;1.83;;
41309;SDS011;27057;51.438;-0.010;2023-07-13T09:36:39;21.23;;;2.42;;
41309;SDS011;27057;51.438;-0.010;2023-07-13T09:42:15;6.35;;;1.90;;
41309;SDS011;27057;51.438;-0.010;2023-07-13T09:47:24;12.03;;;2.60;;
41309;SDS011;27057;51.438;-0.010;2023-07-13T09:50:00;8.90;;;2.22;;
41309;SDS011;27057;51.438;-0.010;2023-07-13T09:52:39;7.97;;;2.00;;
41309;SDS011;27057;51.438;-0.010;2023-07-13T09:55:32;11.98;;;2.00;;
41309;SDS011;27057;51.438;-0.010;2023-07-13T10:00:41;8.43;;;1.85;;
41309;SDS011;27057;51.438;-0.010;2023-07-13T10:03:19;4.55;;;1.90;;
41309;SDS011;27057;51.438;-0.010;2023-07-13T10:05:49;14.02;;;2.53;;
41309;SDS011;27057;51.438;-0.010;2023-07-13T10:08:23;11.05;;;1.80;;
41309;SDS011;27057;51.438;-0.010;2023-07-13T10:10:58;4.97;;;1.95;;
41309;SDS011;27057;51.438;-0.010;2023-07-13T10:16:04;3.25;;;1.50;;
41309;SDS011;27057;51.438;-0.010;2023-07-13T10:18:37;3.38;;;1.23;;
41309;SDS011;27057;51.438;-0.010;2023-07-13T10:21:30;4.50;;;1.40;;
41309;SDS011;27057;51.438;-0.010;2023-07-13T10:24:05;4.10;;;1.10;;
41309;SDS011;27057;51.438;-0.010;2023-07-13T10:26:45;4.82;;;1.48;;
41309;SDS011;27057;51.438;-0.010;2023-07-13T10:29:38;13.60;;;1.90;;
41309;SDS011;27057;51.438;-0.010;2023-07-13T10:32:11;6.53;;;1.93;;
41309;SDS011;27057;51.438;-0.010;2023-07-13T10:34:41;9.43;;;2.08;;
41309;SDS011;27057;51.438;-0.010;2023-07-13T10:37:15;11.68;;;2.00;;
41309;SDS011;27057;51.438;-0.010;2023-07-13T10:39:47;4.00;;;1.60;;
41309;SDS011;27057;51.438;-0.010;2023-07-13T10:42:19;4.65;;;1.27;;
41309;SDS011;27057;51.438;-0.010;2023-07-13T10:44:53;7.32;;;1.88;;
41309;SDS011;27057;51.438;-0.010;2023-07-13T10:47:21;4.63;;;1.33;;
41309;SDS011;27057;51.438;-0.010;2023-07-13T10:49:50;4.78;;;1.73;;
41309;SDS011;27057;51.438;-0.010;2023-07-13T10:55:04;5.20;;;1.50;;
41309;SDS011;27057;51.438;-0.010;2023-07-13T10:57:40;4.60;;;1.50;;
41309;SDS011;27057;51.438;-0.010;2023-07-13T11:00:16;3.22;;;1.42;;
41309;SDS011;27057;51.438;-0.010;2023-07-13T11:02:55;5.60;;;1.90;;
41309;SDS011;27057;51.438;-0.010;2023-07-13T11:07:56;5.32;;;2.13;;
41309;SDS011;27057;51.438;-0.010;2023-07-13T11:10:45;3.03;;;1.50;;
41309;SDS011;27057;51.438;-0.010;2023-07-13T11:18:47;4.45;;;1.48;;
41309;SDS011;27057;51.438;-0.010;2023-07-13T11:21:22;6.35;;;1.70;;
41309;SDS011;27057;51.438;-0.010;2023-07-13T11:24:12;3.85;;;1.20;;
41309;SDS011;27057;51.438;-0.010;2023-07-13T11:31:55;5.18;;;1.20;;
41309;SDS011;27057;51.438;-0.010;2023-07-13T11:34:31;3.28;;;1.10;;
41309;SDS011;27057;51.438;-0.010;2023-07-13T11:37:02;5.50;;;1.30;;
41309;SDS011;27057;51.438;-0.010;2023-07-13T11:39:31;2.55;;;2.10;;
41309;SDS011;27057;51.438;-0.010;2023-07-13T11:42:03;3.58;;;1.45;;
41309;SDS011;27057;51.438;-0.010;2023-07-13T11:44:33;4.03;;;1.35;;
41309;SDS011;27057;51.438;-0.010;2023-07-13T11:47:08;7.70;;;1.77;;
41309;SDS011;27057;51.438;-0.010;2023-07-13T11:49:45;2.67;;;1.52;;
41309;SDS011;27057;51.438;-0.010;2023-07-13T11:52:20;2.95;;;1.00;;
41309;SDS011;27057;51.438;-0.010;2023-07-13T11:54:51;6.68;;;1.45;;
41309;SDS011;27057;51.438;-0.010;2023-07-13T12:00:02;3.67;;;1.48;;
41309;SDS011;27057;51.438;-0.010;2023-07-13T12:02:34;4.60;;;1.13;;
41309;SDS011;27057;51.438;-0.010;2023-07-13T12:06:06;2.25;;;1.20;;
41309;SDS011;27057;51.438;-0.010;2023-07-13T12:08:49;11.02;;;1.45;;
41309;SDS011;27057;51.438;-0.010;2023-07-13T12:11:17;7.30;;;0.90;;
41309;SDS011;27057;51.438;-0.010;2023-07-13T12:13:46;4.53;;;1.38;;
41309;SDS011;27057;51.438;-0.010;2023-07-13T12:16:15;10.20;;;2.00;;
41309;SDS011;27057;51.438;-0.010;2023-07-13T12:18:43;7.28;;;2.42;;
41309;SDS011;27057;51.438;-0.010;2023-07-13T12:21:13;3.63;;;2.00;;
41309;SDS011;27057;51.438;-0.010;2023-07-13T12:23:46;12.20;;;2.28;;
41309;SDS011;27057;51.438;-0.010;2023-07-13T12:26:17;7.47;;;1.92;;
41309;SDS011;27057;51.438;-0.010;2023-07-13T12:28:49;6.03;;;2.10;;
41309;SDS011;27057;51.438;-0.010;2023-07-13T12:34:12;2.92;;;1.95;;
41309;SDS011;27057;51.438;-0.010;2023-07-13T12:36:48;3.42;;;1.50;;
41309;SDS011;27057;51.438;-0.010;2023-07-13T12:44:44;4.75;;;1.38;;
41309;SDS011;27057;51.438;-0.010;2023-07-13T12:47:13;2.03;;;1.10;;
41309;SDS011;27057;51.438;-0.010;2023-07-13T12:49:50;5.07;;;1.52;;
41309;SDS011;27057;51.438;-0.010;2023-07-13T12:52:24;1.92;;;1.13;;
41309;SDS011;27057;51.438;-0.010;2023-07-13T12:54:58;3.75;;;1.77;;
41309;SDS011;27057;51.438;-0.010;2023-07-13T12:57:38;3.40;;;1.33;;
41309;SDS011;27057;51.438;-0.010;2023-07-13T13:00:18;4.20;;;1.52;;
41309;SDS011;27057;51.438;-0.010;2023-07-13T13:03:04;5.80;;;1.40;;
41309;SDS011;27057;51.438;-0.010;2023-07-13T13:06:04;6.03;;;1.70;;
41309;SDS011;27057;51.438;-0.010;2023-07-13T13:08:34;4.28;;;1.65;;
41309;SDS011;27057;51.438;-0.010;2023-07-13T13:11:02;5.30;;;1.52;;
41309;SDS011;27057;51.438;-0.010;2023-07-13T13:13:30;4.38;;;2.00;;
41309;SDS011;27057;51.438;-0.010;2023-07-13T13:16:01;10.05;;;2.03;;
41309;SDS011;27057;51.438;-0.010;2023-07-13T13:18:33;4.63;;;2.17;;
41309;SDS011;27057;51.438;-0.010;2023-07-13T13:21:02;4.70;;;1.48;;
41309;SDS011;27057;51.438;-0.010;2023-07-13T13:23:29;3.83;;;1.50;;
41309;SDS011;27057;51.438;-0.010;2023-07-13T13:25:57;5.55;;;1.48;;
41309;SDS011;27057;51.438;-0.010;2023-07-13T13:28:25;6.10;;;1.33;;
41309;SDS011;27057;51.438;-0.010;2023-07-13T13:30:53;4.20;;;1.20;;
41309;SDS011;27057;51.438;-0.010;2023-07-13T13:33:20;2.88;;;1.50;;
41309;SDS011;27057;51.438;-0.010;2023-07-13T13:35:48;4.13;;;1.30;;
41309;SDS011;27057;51.438;-0.010;2023-07-13T13:38:20;2.55;;;1.00;;
41309;SDS011;27057;51.438;-0.010;2023-07-13T13:40:51;4.43;;;1.05;;
41309;SDS011;27057;51.438;-0.010;2023-07-13T13:43:22;18.48;;;1.70;;
41309;SDS011;27057;51.438;-0.010;2023-07-13T13:45:55;9.45;;;1.50;;
41309;SDS011;27057;51.438;-0.010;2023-07-13T13:48:34;5.13;;;1.92;;
41309;SDS011;27057;51.438;-0.010;2023-07-13T13:51:12;2.72;;;1.17;;
41309;SDS011;27057;51.438;-0.010;2023-07-13T13:53:44;5.68;;;2.00;;
41309;SDS011;27057;51.438;-0.010;2023-07-13T13:56:13;2.97;;;1.30;;
41309;SDS011;27057;51.438;-0.010;2023-07-13T13:58:41;8.90;;;2.45;;
41309;SDS011;27057;51.438;-0.010;2023-07-13T14:01:13;3.00;;;1.40;;
41309;SDS011;27057;51.438;-0.010;2023-07-13T14:06:15;3.47;;;2.13;;
41309;SDS011;27057;51.438;-0.010;2023-07-13T14:08:43;10.85;;;1.73;;
41309;SDS011;27057;51.438;-0.010;2023-07-13T14:11:11;5.97;;;2.03;;
41309;SDS011;27057;51.438;-0.010;2023-07-13T14:13:47;8.93;;;1.95;;
41309;SDS011;27057;51.438;-0.010;2023-07-13T14:16:18;8.68;;;2.38;;
41309;SDS011;27057;51.438;-0.010;2023-07-13T14:18:48;7.53;;;2.25;;
41309;SDS011;27057;51.438;-0.010;2023-07-13T14:21:17;6.10;;;2.20;;
41309;SDS011;27057;51.438;-0.010;2023-07-13T14:23:47;13.25;;;2.15;;
41309;SDS011;27057;51.438;-0.010;2023-07-13T14:28:46;9.55;;;2.10;;
41309;SDS011;27057;51.438;-0.010;2023-07-13T14:31:16;8.48;;;2.10;;
41309;SDS011;27057;51.438;-0.010;2023-07-13T14:33:44;4.20;;;1.85;;
41309;SDS011;27057;51.438;-0.010;2023-07-13T14:38:51;11.18;;;2.03;;
41309;SDS011;27057;51.438;-0.010;2023-07-13T14:41:18;6.53;;;1.75;;
41309;SDS011;27057;51.438;-0.010;2023-07-13T14:43:46;5.65;;;2.30;;
41309;SDS011;27057;51.438;-0.010;2023-07-13T14:46:27;9.88;;;1.60;;
41309;SDS011;27057;51.438;-0.010;2023-07-13T14:49:21;7.90;;;2.38;;
41309;SDS011;27057;51.438;-0.010;2023-07-13T14:51:58;5.40;;;2.15;;
41309;SDS011;27057;51.438;-0.010;2023-07-13T14:54:27;4.40;;;1.75;;
41309;SDS011;27057;51.438;-0.010;2023-07-13T14:56:55;9.18;;;1.85;;
41309;SDS011;27057;51.438;-0.010;2023-07-13T14:59:22;9.80;;;2.20;;
41309;SDS011;27057;51.438;-0.010;2023-07-13T15:01:50;9.25;;;2.47;;
41309;SDS011;27057;51.438;-0.010;2023-07-13T15:04:18;4.43;;;1.90;;
41309;SDS011;27057;51.438;-0.010;2023-07-13T15:06:58;10.15;;;2.40;;
41309;SDS011;27057;51.438;-0.010;2023-07-13T15:09:28;6.70;;;2.10;;
41309;SDS011;27057;51.438;-0.010;2023-07-13T15:11:56;6.65;;;2.40;;
41309;SDS011;27057;51.438;-0.010;2023-07-13T15:14:25;7.10;;;2.28;;
41309;SDS011;27057;51.438;-0.010;2023-07-13T15:16:53;12.30;;;2.50;;
41309;SDS011;27057;51.438;-0.010;2023-07-13T15:19:22;13.38;;;2.10;;
41309;SDS011;27057;51.438;-0.010;2023-07-13T15:21:52;4.75;;;2.03;;
41309;SDS011;27057;51.438;-0.010;2023-07-13T15:24:24;6.93;;;2.28;;
41309;SDS011;27057;51.438;-0.010;2023-07-13T15:26:51;9.43;;;2.13;;
41309;SDS011;27057;51.438;-0.010;2023-07-13T15:29:19;7.32;;;2.97;;
41309;SDS011;27057;51.438;-0.010;2023-07-13T15:31:46;6.70;;;2.28;;
41309;SDS011;27057;51.438;-0.010;2023-07-13T15:34:15;9.23;;;2.30;;
41309;SDS011;27057;51.438;-0.010;2023-07-13T15:36:45;15.88;;;2.53;;
41309;SDS011;27057;51.438;-0.010;2023-07-13T15:39:15;11.60;;;2.50;;
41309;SDS011;27057;51.438;-0.010;2023-07-13T15:41:44;12.85;;;3.05;;
41309;SDS011;27057;51.438;-0.010;2023-07-13T15:44:23;6.32;;;1.85;;
41309;SDS011;27057;51.438;-0.010;2023-07-13T15:46:55;5.18;;;2.35;;
41309;SDS011;27057;51.438;-0.010;2023-07-13T15:49:23;6.00;;;2.95;;
41309;SDS011;27057;51.438;-0.010;2023-07-13T15:51:51;11.15;;;2.70;;